sensor_id;sensor_type;location;lat;lon;timestamp;temperature;humidity
4813;DHT22;2420;51.202;8.698;2022-12-07T00:01:30;2.30;1.00
4813;DHT22;2420;51.202;8.698;2022-12-07T00:03:58;2.20;1.00
4813;DHT22;2420;51.202;8.698;2022-12-07T00:06:36;2.10;1.00
4813;DHT22;2420;51.202;8.698;2022-12-07T00:09:07;2.40;1.00
4813;DHT22;2420;51.202;8.698;2022-12-07T00:11:33;2.30;1.00
4813;DHT22;2420;51.202;8.698;2022-12-07T00:14:01;2.50;1.00
4813;DHT22;2420;51.202;8.698;2022-12-07T00:16:29;2.30;1.00
4813;DHT22;2420;51.202;8.698;2022-12-07T00:18:55;2.50;1.00
4813;DHT22;2420;51.202;8.698;2022-12-07T00:21:23;2.20;1.00
4813;DHT22;2420;51.202;8.698;2022-12-07T00:23:50;2.20;1.00
4813;DHT22;2420;51.202;8.698;2022-12-07T00:26:18;2.30;1.00
4813;DHT22;2420;51.202;8.698;2022-12-07T00:28:46;2.40;1.00
4813;DHT22;2420;51.202;8.698;2022-12-07T00:31:13;2.30;1.00
4813;DHT22;2420;51.202;8.698;2022-12-07T00:33:39;2.50;1.00
4813;DHT22;2420;51.202;8.698;2022-12-07T00:36:07;2.30;1.00
4813;DHT22;2420;51.202;8.698;2022-12-07T00:38:36;2.60;1.00
4813;DHT22;2420;51.202;8.698;2022-12-07T00:41:04;2.30;1.00
4813;DHT22;2420;51.202;8.698;2022-12-07T00:43:31;2.40;1.00
4813;DHT22;2420;51.202;8.698;2022-12-07T00:45:57;2.40;1.00
4813;DHT22;2420;51.202;8.698;2022-12-07T00:48:23;2.40;1.00
4813;DHT22;2420;51.202;8.698;2022-12-07T00:50:48;2.40;1.00
4813;DHT22;2420;51.202;8.698;2022-12-07T00:53:14;2.40;1.00
4813;DHT22;2420;51.202;8.698;2022-12-07T00:55:40;2.50;1.00
4813;DHT22;2420;51.202;8.698;2022-12-07T00:58:06;2.50;1.00
4813;DHT22;2420;51.202;8.698;2022-12-07T01:00:32;2.50;1.00
4813;DHT22;2420;51.202;8.698;2022-12-07T01:02:59;2.30;1.00
4813;DHT22;2420;51.202;8.698;2022-12-07T01:05:26;2.40;1.00
4813;DHT22;2420;51.202;8.698;2022-12-07T01:07:52;2.50;1.00
4813;DHT22;2420;51.202;8.698;2022-12-07T01:10:17;2.50;1.00
4813;DHT22;2420;51.202;8.698;2022-12-07T01:12:43;2.50;1.00
4813;DHT22;2420;51.202;8.698;2022-12-07T01:15:09;2.50;1.00
4813;DHT22;2420;51.202;8.698;2022-12-07T01:17:35;2.50;1.00
4813;DHT22;2420;51.202;8.698;2022-12-07T01:20:01;2.50;1.00
4813;DHT22;2420;51.202;8.698;2022-12-07T01:22:27;2.70;1.00
4813;DHT22;2420;51.202;8.698;2022-12-07T01:24:52;2.70;1.00
4813;DHT22;2420;51.202;8.698;2022-12-07T01:27:18;2.70;1.00
4813;DHT22;2420;51.202;8.698;2022-12-07T01:29:43;2.50;1.00
4813;DHT22;2420;51.202;8.698;2022-12-07T01:32:09;2.60;1.00
4813;DHT22;2420;51.202;8.698;2022-12-07T01:34:35;2.80;1.00
4813;DHT22;2420;51.202;8.698;2022-12-07T01:37:00;2.80;1.00
4813;DHT22;2420;51.202;8.698;2022-12-07T01:39:26;2.60;1.00
4813;DHT22;2420;51.202;8.698;2022-12-07T01:41:52;2.60;1.00
4813;DHT22;2420;51.202;8.698;2022-12-07T01:44:26;2.60;1.00
4813;DHT22;2420;51.202;8.698;2022-12-07T01:49:37;2.50;1.00
4813;DHT22;2420;51.202;8.698;2022-12-07T01:52:28;2.50;1.00
4813;DHT22;2420;51.202;8.698;2022-12-07T01:55:00;2.70;1.00
4813;DHT22;2420;51.202;8.698;2022-12-07T01:57:26;2.80;1.00
4813;DHT22;2420;51.202;8.698;2022-12-07T01:59:53;2.60;1.00
4813;DHT22;2420;51.202;8.698;2022-12-07T02:02:33;2.90;1.00
4813;DHT22;2420;51.202;8.698;2022-12-07T02:05:01;2.70;1.00
4813;DHT22;2420;51.202;8.698;2022-12-07T02:07:27;2.70;1.00
4813;DHT22;2420;51.202;8.698;2022-12-07T02:09:54;2.70;1.00
4813;DHT22;2420;51.202;8.698;2022-12-07T02:12:20;3.10;1.00
4813;DHT22;2420;51.202;8.698;2022-12-07T02:14:47;2.80;1.00
4813;DHT22;2420;51.202;8.698;2022-12-07T02:17:32;2.70;1.00
4813;DHT22;2420;51.202;8.698;2022-12-07T02:20:23;3.00;1.00
4813;DHT22;2420;51.202;8.698;2022-12-07T02:28:28;2.90;1.00
4813;DHT22;2420;51.202;8.698;2022-12-07T02:30:56;2.80;1.00
4813;DHT22;2420;51.202;8.698;2022-12-07T02:33:42;2.90;1.00
4813;DHT22;2420;51.202;8.698;2022-12-07T02:36:32;2.90;1.00
4813;DHT22;2420;51.202;8.698;2022-12-07T02:39:09;2.80;1.00
4813;DHT22;2420;51.202;8.698;2022-12-07T02:41:44;2.90;1.00
4813;DHT22;2420;51.202;8.698;2022-12-07T02:44:15;2.70;1.00
4813;DHT22;2420;51.202;8.698;2022-12-07T02:46:46;3.00;1.00
4813;DHT22;2420;51.202;8.698;2022-12-07T02:49:14;2.90;1.00
4813;DHT22;2420;51.202;8.698;2022-12-07T02:51:45;2.90;1.00
4813;DHT22;2420;51.202;8.698;2022-12-07T02:54:13;2.90;1.00
4813;DHT22;2420;51.202;8.698;2022-12-07T02:56:45;2.80;1.00
4813;DHT22;2420;51.202;8.698;2022-12-07T03:07:33;2.70;1.00
4813;DHT22;2420;51.202;8.698;2022-12-07T03:10:24;3.00;1.00
4813;DHT22;2420;51.202;8.698;2022-12-07T03:13:07;2.90;1.00
4813;DHT22;2420;51.202;8.698;2022-12-07T03:16:00;2.90;1.00
4813;DHT22;2420;51.202;8.698;2022-12-07T03:18:30;2.60;1.00
4813;DHT22;2420;51.202;8.698;2022-12-07T03:21:02;2.80;1.00
4813;DHT22;2420;51.202;8.698;2022-12-07T03:23:29;2.80;1.00
4813;DHT22;2420;51.202;8.698;2022-12-07T03:26:00;2.70;1.00
4813;DHT22;2420;51.202;8.698;2022-12-07T03:28:31;2.70;1.00
4813;DHT22;2420;51.202;8.698;2022-12-07T03:31:04;2.60;1.00
4813;DHT22;2420;51.202;8.698;2022-12-07T03:33:36;2.90;1.00
4813;DHT22;2420;51.202;8.698;2022-12-07T03:36:11;2.80;1.00
4813;DHT22;2420;51.202;8.698;2022-12-07T03:38:44;2.60;1.00
4813;DHT22;2420;51.202;8.698;2022-12-07T03:41:26;2.50;1.00
4813;DHT22;2420;51.202;8.698;2022-12-07T03:43:55;2.50;1.00
4813;DHT22;2420;51.202;8.698;2022-12-07T03:46:35;2.30;1.00
4813;DHT22;2420;51.202;8.698;2022-12-07T03:51:54;2.80;1.00
4813;DHT22;2420;51.202;8.698;2022-12-07T03:54:44;2.80;1.00
4813;DHT22;2420;51.202;8.698;2022-12-07T03:57:12;2.80;1.00
4813;DHT22;2420;51.202;8.698;2022-12-07T03:59:38;2.80;1.00
4813;DHT22;2420;51.202;8.698;2022-12-07T04:02:06;2.60;1.00
4813;DHT22;2420;51.202;8.698;2022-12-07T04:04:33;2.80;1.00
4813;DHT22;2420;51.202;8.698;2022-12-07T04:06:59;2.70;1.00
4813;DHT22;2420;51.202;8.698;2022-12-07T04:09:25;2.60;1.00
4813;DHT22;2420;51.202;8.698;2022-12-07T04:11:51;2.70;1.00
4813;DHT22;2420;51.202;8.698;2022-12-07T04:14:17;2.90;1.00
4813;DHT22;2420;51.202;8.698;2022-12-07T04:16:47;2.60;1.00
4813;DHT22;2420;51.202;8.698;2022-12-07T04:19:13;2.70;1.00
4813;DHT22;2420;51.202;8.698;2022-12-07T04:21:39;2.60;1.00
4813;DHT22;2420;51.202;8.698;2022-12-07T04:24:05;2.50;1.00
4813;DHT22;2420;51.202;8.698;2022-12-07T04:26:30;2.50;1.00
4813;DHT22;2420;51.202;8.698;2022-12-07T04:28:56;2.40;1.00
4813;DHT22;2420;51.202;8.698;2022-12-07T04:31:21;2.40;1.00
4813;DHT22;2420;51.202;8.698;2022-12-07T04:33:47;2.50;1.00
4813;DHT22;2420;51.202;8.698;2022-12-07T04:36:13;2.50;1.00
4813;DHT22;2420;51.202;8.698;2022-12-07T04:38:38;2.70;1.00
4813;DHT22;2420;51.202;8.698;2022-12-07T04:41:08;2.40;1.00
4813;DHT22;2420;51.202;8.698;2022-12-07T04:43:35;2.60;1.00
4813;DHT22;2420;51.202;8.698;2022-12-07T04:46:01;2.70;1.00
4813;DHT22;2420;51.202;8.698;2022-12-07T04:48:26;2.60;1.00
4813;DHT22;2420;51.202;8.698;2022-12-07T04:50:52;2.60;1.00
4813;DHT22;2420;51.202;8.698;2022-12-07T04:53:18;2.80;1.00
4813;DHT22;2420;51.202;8.698;2022-12-07T04:55:44;2.60;1.00
4813;DHT22;2420;51.202;8.698;2022-12-07T04:58:11;2.70;1.00
4813;DHT22;2420;51.202;8.698;2022-12-07T05:00:37;2.80;1.00
4813;DHT22;2420;51.202;8.698;2022-12-07T05:03:03;2.70;1.00
4813;DHT22;2420;51.202;8.698;2022-12-07T05:05:28;2.70;1.00
4813;DHT22;2420;51.202;8.698;2022-12-07T05:07:54;2.50;1.00
4813;DHT22;2420;51.202;8.698;2022-12-07T05:10:19;2.70;1.00
4813;DHT22;2420;51.202;8.698;2022-12-07T05:12:45;2.70;1.00
4813;DHT22;2420;51.202;8.698;2022-12-07T05:15:11;2.80;1.00
4813;DHT22;2420;51.202;8.698;2022-12-07T05:17:37;2.70;1.00
4813;DHT22;2420;51.202;8.698;2022-12-07T05:20:03;2.70;1.00
4813;DHT22;2420;51.202;8.698;2022-12-07T05:22:29;2.50;1.00
4813;DHT22;2420;51.202;8.698;2022-12-07T05:24:55;2.90;1.00
4813;DHT22;2420;51.202;8.698;2022-12-07T05:27:20;2.60;1.00
4813;DHT22;2420;51.202;8.698;2022-12-07T05:29:46;2.70;1.00
4813;DHT22;2420;51.202;8.698;2022-12-07T05:32:12;2.40;1.00
4813;DHT22;2420;51.202;8.698;2022-12-07T05:34:37;2.70;1.00
4813;DHT22;2420;51.202;8.698;2022-12-07T05:37:03;2.70;1.00
4813;DHT22;2420;51.202;8.698;2022-12-07T05:39:29;2.80;1.00
4813;DHT22;2420;51.202;8.698;2022-12-07T05:41:54;2.80;1.00
4813;DHT22;2420;51.202;8.698;2022-12-07T05:44:42;2.70;1.00
4813;DHT22;2420;51.202;8.698;2022-12-07T05:47:08;2.60;1.00
4813;DHT22;2420;51.202;8.698;2022-12-07T05:49:34;2.50;1.00
4813;DHT22;2420;51.202;8.698;2022-12-07T05:51:59;2.60;1.00
4813;DHT22;2420;51.202;8.698;2022-12-07T05:54:25;2.50;1.00
4813;DHT22;2420;51.202;8.698;2022-12-07T05:56:51;2.50;1.00
4813;DHT22;2420;51.202;8.698;2022-12-07T05:59:16;2.70;1.00
4813;DHT22;2420;51.202;8.698;2022-12-07T06:02:09;2.50;1.00
4813;DHT22;2420;51.202;8.698;2022-12-07T06:04:36;2.60;1.00
4813;DHT22;2420;51.202;8.698;2022-12-07T06:07:02;2.30;1.00
4813;DHT22;2420;51.202;8.698;2022-12-07T06:09:28;2.50;1.00
4813;DHT22;2420;51.202;8.698;2022-12-07T06:11:55;2.40;1.00
4813;DHT22;2420;51.202;8.698;2022-12-07T06:14:40;2.60;1.00
4813;DHT22;2420;51.202;8.698;2022-12-07T06:17:06;2.30;1.00
4813;DHT22;2420;51.202;8.698;2022-12-07T06:19:32;2.30;1.00
4813;DHT22;2420;51.202;8.698;2022-12-07T06:21:57;2.50;1.00
4813;DHT22;2420;51.202;8.698;2022-12-07T06:24:23;2.50;1.00
4813;DHT22;2420;51.202;8.698;2022-12-07T06:26:49;2.40;1.00
4813;DHT22;2420;51.202;8.698;2022-12-07T06:29:15;2.60;1.00
4813;DHT22;2420;51.202;8.698;2022-12-07T06:31:41;2.40;1.00
4813;DHT22;2420;51.202;8.698;2022-12-07T06:34:10;2.60;1.00
4813;DHT22;2420;51.202;8.698;2022-12-07T06:36:37;2.50;1.00
4813;DHT22;2420;51.202;8.698;2022-12-07T06:39:03;2.40;1.00
4813;DHT22;2420;51.202;8.698;2022-12-07T06:41:29;2.50;1.00
4813;DHT22;2420;51.202;8.698;2022-12-07T06:43:54;2.40;1.00
4813;DHT22;2420;51.202;8.698;2022-12-07T06:46:20;2.70;1.00
4813;DHT22;2420;51.202;8.698;2022-12-07T06:48:46;2.70;1.00
4813;DHT22;2420;51.202;8.698;2022-12-07T06:51:11;2.40;1.00
4813;DHT22;2420;51.202;8.698;2022-12-07T06:53:37;2.40;1.00
4813;DHT22;2420;51.202;8.698;2022-12-07T06:56:04;2.40;1.00
4813;DHT22;2420;51.202;8.698;2022-12-07T06:58:30;2.50;1.00
4813;DHT22;2420;51.202;8.698;2022-12-07T07:00:55;2.20;1.00
4813;DHT22;2420;51.202;8.698;2022-12-07T07:03:21;2.20;1.00
4813;DHT22;2420;51.202;8.698;2022-12-07T07:05:47;2.30;1.00
4813;DHT22;2420;51.202;8.698;2022-12-07T07:08:12;2.20;1.00
4813;DHT22;2420;51.202;8.698;2022-12-07T07:10:39;2.10;1.00
4813;DHT22;2420;51.202;8.698;2022-12-07T07:13:05;2.40;1.00
4813;DHT22;2420;51.202;8.698;2022-12-07T07:15:31;2.20;1.00
4813;DHT22;2420;51.202;8.698;2022-12-07T07:17:57;2.20;1.00
4813;DHT22;2420;51.202;8.698;2022-12-07T07:20:23;2.20;1.00
4813;DHT22;2420;51.202;8.698;2022-12-07T07:22:49;2.30;1.00
4813;DHT22;2420;51.202;8.698;2022-12-07T07:25:15;2.20;1.00
4813;DHT22;2420;51.202;8.698;2022-12-07T07:27:41;2.10;1.00
4813;DHT22;2420;51.202;8.698;2022-12-07T07:30:07;2.20;1.00
4813;DHT22;2420;51.202;8.698;2022-12-07T07:32:33;2.30;1.00
4813;DHT22;2420;51.202;8.698;2022-12-07T07:34:58;2.20;1.00
4813;DHT22;2420;51.202;8.698;2022-12-07T07:37:24;2.00;1.00
4813;DHT22;2420;51.202;8.698;2022-12-07T07:39:50;2.10;1.00
4813;DHT22;2420;51.202;8.698;2022-12-07T07:42:16;2.10;1.00
4813;DHT22;2420;51.202;8.698;2022-12-07T07:44:41;2.30;1.00
4813;DHT22;2420;51.202;8.698;2022-12-07T07:47:07;2.20;1.00
4813;DHT22;2420;51.202;8.698;2022-12-07T07:49:32;2.30;1.00
4813;DHT22;2420;51.202;8.698;2022-12-07T07:51:58;2.20;1.00
4813;DHT22;2420;51.202;8.698;2022-12-07T07:54:23;2.30;1.00
4813;DHT22;2420;51.202;8.698;2022-12-07T07:56:49;2.10;1.00
4813;DHT22;2420;51.202;8.698;2022-12-07T07:59:15;2.30;1.00
4813;DHT22;2420;51.202;8.698;2022-12-07T08:01:41;2.20;1.00
4813;DHT22;2420;51.202;8.698;2022-12-07T08:04:07;2.50;1.00
4813;DHT22;2420;51.202;8.698;2022-12-07T08:06:32;2.50;1.00
4813;DHT22;2420;51.202;8.698;2022-12-07T08:08:58;2.50;1.00
4813;DHT22;2420;51.202;8.698;2022-12-07T08:11:24;2.30;1.00
4813;DHT22;2420;51.202;8.698;2022-12-07T08:13:50;2.50;1.00
4813;DHT22;2420;51.202;8.698;2022-12-07T08:16:16;2.40;1.00
4813;DHT22;2420;51.202;8.698;2022-12-07T08:18:42;2.50;1.00
4813;DHT22;2420;51.202;8.698;2022-12-07T08:21:12;2.50;1.00
4813;DHT22;2420;51.202;8.698;2022-12-07T08:23:37;2.50;1.00
4813;DHT22;2420;51.202;8.698;2022-12-07T08:26:05;2.60;1.00
4813;DHT22;2420;51.202;8.698;2022-12-07T08:28:31;2.70;1.00
4813;DHT22;2420;51.202;8.698;2022-12-07T08:31:00;2.60;1.00
4813;DHT22;2420;51.202;8.698;2022-12-07T08:33:27;2.50;1.00
4813;DHT22;2420;51.202;8.698;2022-12-07T08:35:52;2.40;1.00
4813;DHT22;2420;51.202;8.698;2022-12-07T08:38:18;2.50;1.00
4813;DHT22;2420;51.202;8.698;2022-12-07T08:40:43;2.60;1.00
4813;DHT22;2420;51.202;8.698;2022-12-07T08:43:09;2.50;1.00
4813;DHT22;2420;51.202;8.698;2022-12-07T08:45:34;2.70;1.00
4813;DHT22;2420;51.202;8.698;2022-12-07T08:48:06;2.70;1.00
4813;DHT22;2420;51.202;8.698;2022-12-07T08:50:33;2.70;1.00
4813;DHT22;2420;51.202;8.698;2022-12-07T08:53:00;2.90;1.00
4813;DHT22;2420;51.202;8.698;2022-12-07T08:55:27;2.60;1.00
4813;DHT22;2420;51.202;8.698;2022-12-07T08:57:53;2.60;1.00
4813;DHT22;2420;51.202;8.698;2022-12-07T09:00:18;2.50;1.00
4813;DHT22;2420;51.202;8.698;2022-12-07T09:02:45;2.60;1.00
4813;DHT22;2420;51.202;8.698;2022-12-07T09:05:12;2.50;1.00
4813;DHT22;2420;51.202;8.698;2022-12-07T09:07:40;2.70;1.00
4813;DHT22;2420;51.202;8.698;2022-12-07T09:10:06;2.50;1.00
4813;DHT22;2420;51.202;8.698;2022-12-07T09:12:32;2.60;1.00
4813;DHT22;2420;51.202;8.698;2022-12-07T09:14:57;2.70;1.00
4813;DHT22;2420;51.202;8.698;2022-12-07T09:17:23;2.70;1.00
4813;DHT22;2420;51.202;8.698;2022-12-07T09:19:49;2.80;1.00
4813;DHT22;2420;51.202;8.698;2022-12-07T09:22:15;2.60;1.00
4813;DHT22;2420;51.202;8.698;2022-12-07T09:24:40;2.50;1.00
4813;DHT22;2420;51.202;8.698;2022-12-07T09:27:06;2.70;1.00
4813;DHT22;2420;51.202;8.698;2022-12-07T09:29:31;2.90;1.00
4813;DHT22;2420;51.202;8.698;2022-12-07T09:31:57;2.70;1.00
4813;DHT22;2420;51.202;8.698;2022-12-07T09:34:22;3.00;1.00
4813;DHT22;2420;51.202;8.698;2022-12-07T09:36:48;3.30;1.00
4813;DHT22;2420;51.202;8.698;2022-12-07T09:39:14;3.20;1.00
4813;DHT22;2420;51.202;8.698;2022-12-07T09:41:42;3.30;1.00
4813;DHT22;2420;51.202;8.698;2022-12-07T09:44:13;3.30;1.00
4813;DHT22;2420;51.202;8.698;2022-12-07T09:46:41;3.20;1.00
4813;DHT22;2420;51.202;8.698;2022-12-07T09:49:20;3.10;1.00
4813;DHT22;2420;51.202;8.698;2022-12-07T09:51:47;3.30;1.00
4813;DHT22;2420;51.202;8.698;2022-12-07T09:54:14;3.10;1.00
4813;DHT22;2420;51.202;8.698;2022-12-07T09:56:40;3.30;1.00
4813;DHT22;2420;51.202;8.698;2022-12-07T09:59:09;3.30;1.00
4813;DHT22;2420;51.202;8.698;2022-12-07T10:01:39;3.70;1.00
4813;DHT22;2420;51.202;8.698;2022-12-07T10:04:19;3.50;1.00
4813;DHT22;2420;51.202;8.698;2022-12-07T10:06:47;3.50;1.00
4813;DHT22;2420;51.202;8.698;2022-12-07T10:09:17;3.60;1.00
4813;DHT22;2420;51.202;8.698;2022-12-07T10:12:07;3.50;1.00
4813;DHT22;2420;51.202;8.698;2022-12-07T10:14:37;3.50;1.00
4813;DHT22;2420;51.202;8.698;2022-12-07T10:17:15;3.60;1.00
4813;DHT22;2420;51.202;8.698;2022-12-07T10:19:48;3.60;1.00
4813;DHT22;2420;51.202;8.698;2022-12-07T10:22:16;3.30;1.00
4813;DHT22;2420;51.202;8.698;2022-12-07T10:24:45;3.50;1.00
4813;DHT22;2420;51.202;8.698;2022-12-07T10:27:18;3.50;1.00
4813;DHT22;2420;51.202;8.698;2022-12-07T10:29:49;3.40;1.00
4813;DHT22;2420;51.202;8.698;2022-12-07T10:34:41;3.50;1.00
4813;DHT22;2420;51.202;8.698;2022-12-07T10:39:42;3.20;1.00
4813;DHT22;2420;51.202;8.698;2022-12-07T10:44:41;3.50;1.00
4813;DHT22;2420;51.202;8.698;2022-12-07T10:49:53;3.40;1.00
4813;DHT22;2420;51.202;8.698;2022-12-07T10:55:38;3.40;1.00
4813;DHT22;2420;51.202;8.698;2022-12-07T11:11:38;3.50;1.00
4813;DHT22;2420;51.202;8.698;2022-12-07T11:14:20;3.40;1.00
4813;DHT22;2420;51.202;8.698;2022-12-07T11:16:55;3.20;1.00
4813;DHT22;2420;51.202;8.698;2022-12-07T11:20:02;3.40;1.00
4813;DHT22;2420;51.202;8.698;2022-12-07T11:25:31;3.00;1.00
4813;DHT22;2420;51.202;8.698;2022-12-07T11:34:00;3.20;1.00
4813;DHT22;2420;51.202;8.698;2022-12-07T11:39:07;3.10;1.00
4813;DHT22;2420;51.202;8.698;2022-12-07T11:41:40;3.20;1.00
4813;DHT22;2420;51.202;8.698;2022-12-07T11:44:33;3.20;1.00
4813;DHT22;2420;51.202;8.698;2022-12-07T11:47:10;3.10;1.00
4813;DHT22;2420;51.202;8.698;2022-12-07T11:50:14;3.00;1.00
4813;DHT22;2420;51.202;8.698;2022-12-07T11:52:47;3.20;1.00
4813;DHT22;2420;51.202;8.698;2022-12-07T11:55:40;3.60;1.00
4813;DHT22;2420;51.202;8.698;2022-12-07T12:03:45;3.60;1.00
4813;DHT22;2420;51.202;8.698;2022-12-07T12:06:12;3.70;1.00
4813;DHT22;2420;51.202;8.698;2022-12-07T12:09:21;3.70;1.00
4813;DHT22;2420;51.202;8.698;2022-12-07T12:23:00;3.90;1.00
4813;DHT22;2420;51.202;8.698;2022-12-07T12:25:30;4.20;1.00
4813;DHT22;2420;51.202;8.698;2022-12-07T12:28:00;4.30;1.00
4813;DHT22;2420;51.202;8.698;2022-12-07T12:33:28;4.10;1.00
4813;DHT22;2420;51.202;8.698;2022-12-07T12:36:22;4.00;1.00
4813;DHT22;2420;51.202;8.698;2022-12-07T12:44:02;3.60;1.00
4813;DHT22;2420;51.202;8.698;2022-12-07T12:54:29;3.50;1.00
4813;DHT22;2420;51.202;8.698;2022-12-07T13:02:36;3.30;1.00
4813;DHT22;2420;51.202;8.698;2022-12-07T13:23:37;3.10;1.00
4813;DHT22;2420;51.202;8.698;2022-12-07T13:26:14;3.30;1.00
4813;DHT22;2420;51.202;8.698;2022-12-07T13:28:49;3.30;1.00
4813;DHT22;2420;51.202;8.698;2022-12-07T13:39:34;3.50;1.00
4813;DHT22;2420;51.202;8.698;2022-12-07T13:42:11;3.60;1.00
4813;DHT22;2420;51.202;8.698;2022-12-07T13:44:41;3.40;1.00
4813;DHT22;2420;51.202;8.698;2022-12-07T13:47:13;3.40;1.00
4813;DHT22;2420;51.202;8.698;2022-12-07T13:49:52;3.60;1.00
4813;DHT22;2420;51.202;8.698;2022-12-07T13:52:29;3.70;1.00
4813;DHT22;2420;51.202;8.698;2022-12-07T13:55:13;3.80;1.00
4813;DHT22;2420;51.202;8.698;2022-12-07T13:57:39;3.80;1.00
4813;DHT22;2420;51.202;8.698;2022-12-07T14:00:15;3.70;1.00
4813;DHT22;2420;51.202;8.698;2022-12-07T14:02:58;3.70;1.00
4813;DHT22;2420;51.202;8.698;2022-12-07T14:05:29;3.80;1.00
4813;DHT22;2420;51.202;8.698;2022-12-07T14:10:27;3.70;1.00
4813;DHT22;2420;51.202;8.698;2022-12-07T14:12:54;3.40;1.00
4813;DHT22;2420;51.202;8.698;2022-12-07T14:15:22;3.30;1.00
4813;DHT22;2420;51.202;8.698;2022-12-07T14:17:53;3.40;1.00
4813;DHT22;2420;51.202;8.698;2022-12-07T14:20:48;3.20;1.00
4813;DHT22;2420;51.202;8.698;2022-12-07T14:23:24;3.40;1.00
4813;DHT22;2420;51.202;8.698;2022-12-07T14:25:52;3.20;1.00
4813;DHT22;2420;51.202;8.698;2022-12-07T14:28:32;3.50;1.00
4813;DHT22;2420;51.202;8.698;2022-12-07T14:30:59;3.40;1.00
4813;DHT22;2420;51.202;8.698;2022-12-07T14:33:26;3.30;1.00
4813;DHT22;2420;51.202;8.698;2022-12-07T14:35:52;3.30;1.00
4813;DHT22;2420;51.202;8.698;2022-12-07T14:38:24;3.40;1.00
4813;DHT22;2420;51.202;8.698;2022-12-07T14:40:52;3.20;1.00
4813;DHT22;2420;51.202;8.698;2022-12-07T14:43:18;3.40;1.00
4813;DHT22;2420;51.202;8.698;2022-12-07T14:45:45;3.10;1.00
4813;DHT22;2420;51.202;8.698;2022-12-07T14:48:13;3.10;1.00
4813;DHT22;2420;51.202;8.698;2022-12-07T14:50:59;3.00;1.00
4813;DHT22;2420;51.202;8.698;2022-12-07T14:53:30;3.20;1.00
4813;DHT22;2420;51.202;8.698;2022-12-07T14:55:58;3.30;1.00
4813;DHT22;2420;51.202;8.698;2022-12-07T14:58:24;3.20;1.00
4813;DHT22;2420;51.202;8.698;2022-12-07T15:00:49;3.00;1.00
4813;DHT22;2420;51.202;8.698;2022-12-07T15:03:15;3.00;1.00
4813;DHT22;2420;51.202;8.698;2022-12-07T15:05:41;3.00;1.00
4813;DHT22;2420;51.202;8.698;2022-12-07T15:08:08;3.10;1.00
4813;DHT22;2420;51.202;8.698;2022-12-07T15:10:34;2.80;1.00
4813;DHT22;2420;51.202;8.698;2022-12-07T15:13:04;3.20;1.00
4813;DHT22;2420;51.202;8.698;2022-12-07T15:15:49;2.90;1.00
4813;DHT22;2420;51.202;8.698;2022-12-07T15:18:15;2.80;1.00
4813;DHT22;2420;51.202;8.698;2022-12-07T15:20:41;2.80;1.00
4813;DHT22;2420;51.202;8.698;2022-12-07T15:23:07;2.90;1.00
4813;DHT22;2420;51.202;8.698;2022-12-07T15:25:33;3.00;1.00
4813;DHT22;2420;51.202;8.698;2022-12-07T15:27:59;2.90;1.00
4813;DHT22;2420;51.202;8.698;2022-12-07T15:30:24;2.80;1.00
4813;DHT22;2420;51.202;8.698;2022-12-07T15:32:53;2.90;1.00
4813;DHT22;2420;51.202;8.698;2022-12-07T15:35:19;2.70;1.00
4813;DHT22;2420;51.202;8.698;2022-12-07T15:37:45;2.80;1.00
4813;DHT22;2420;51.202;8.698;2022-12-07T15:40:12;3.00;1.00
4813;DHT22;2420;51.202;8.698;2022-12-07T15:42:38;2.80;1.00
4813;DHT22;2420;51.202;8.698;2022-12-07T15:45:05;2.90;1.00
4813;DHT22;2420;51.202;8.698;2022-12-07T15:47:33;2.80;1.00
4813;DHT22;2420;51.202;8.698;2022-12-07T15:50:01;2.90;1.00
4813;DHT22;2420;51.202;8.698;2022-12-07T15:52:27;2.60;1.00
4813;DHT22;2420;51.202;8.698;2022-12-07T15:54:52;2.70;1.00
4813;DHT22;2420;51.202;8.698;2022-12-07T15:57:18;2.90;1.00
4813;DHT22;2420;51.202;8.698;2022-12-07T15:59:43;2.90;1.00
4813;DHT22;2420;51.202;8.698;2022-12-07T16:02:09;2.70;1.00
4813;DHT22;2420;51.202;8.698;2022-12-07T16:04:35;2.70;1.00
4813;DHT22;2420;51.202;8.698;2022-12-07T16:07:01;2.60;1.00
4813;DHT22;2420;51.202;8.698;2022-12-07T16:09:26;2.80;1.00
4813;DHT22;2420;51.202;8.698;2022-12-07T16:11:52;2.60;1.00
4813;DHT22;2420;51.202;8.698;2022-12-07T16:14:18;2.70;1.00
4813;DHT22;2420;51.202;8.698;2022-12-07T16:16:43;2.60;1.00
4813;DHT22;2420;51.202;8.698;2022-12-07T16:19:09;2.80;1.00
4813;DHT22;2420;51.202;8.698;2022-12-07T16:21:36;2.80;1.00
4813;DHT22;2420;51.202;8.698;2022-12-07T16:24:02;2.90;1.00
4813;DHT22;2420;51.202;8.698;2022-12-07T16:26:27;2.90;1.00
4813;DHT22;2420;51.202;8.698;2022-12-07T16:28:54;2.80;1.00
4813;DHT22;2420;51.202;8.698;2022-12-07T16:31:22;2.90;1.00
4813;DHT22;2420;51.202;8.698;2022-12-07T16:33:48;2.60;1.00
4813;DHT22;2420;51.202;8.698;2022-12-07T16:36:15;2.60;1.00
4813;DHT22;2420;51.202;8.698;2022-12-07T16:38:42;2.50;1.00
4813;DHT22;2420;51.202;8.698;2022-12-07T16:41:08;2.80;1.00
4813;DHT22;2420;51.202;8.698;2022-12-07T16:43:34;2.80;1.00
4813;DHT22;2420;51.202;8.698;2022-12-07T16:46:00;2.70;1.00
4813;DHT22;2420;51.202;8.698;2022-12-07T16:48:26;2.80;1.00
4813;DHT22;2420;51.202;8.698;2022-12-07T16:50:52;2.70;1.00
4813;DHT22;2420;51.202;8.698;2022-12-07T16:53:22;2.70;1.00
4813;DHT22;2420;51.202;8.698;2022-12-07T16:55:47;2.90;1.00
4813;DHT22;2420;51.202;8.698;2022-12-07T16:58:15;2.50;1.00
4813;DHT22;2420;51.202;8.698;2022-12-07T17:00:42;2.80;1.00
4813;DHT22;2420;51.202;8.698;2022-12-07T17:03:08;2.80;1.00
4813;DHT22;2420;51.202;8.698;2022-12-07T17:05:40;2.90;1.00
4813;DHT22;2420;51.202;8.698;2022-12-07T17:08:06;2.70;1.00
4813;DHT22;2420;51.202;8.698;2022-12-07T17:10:37;2.70;1.00
4813;DHT22;2420;51.202;8.698;2022-12-07T17:13:04;2.50;1.00
4813;DHT22;2420;51.202;8.698;2022-12-07T17:16:04;2.50;1.00
4813;DHT22;2420;51.202;8.698;2022-12-07T17:18:33;2.40;1.00
4813;DHT22;2420;51.202;8.698;2022-12-07T17:21:06;2.50;1.00
4813;DHT22;2420;51.202;8.698;2022-12-07T17:23:33;2.40;1.00
4813;DHT22;2420;51.202;8.698;2022-12-07T17:26:16;2.60;1.00
4813;DHT22;2420;51.202;8.698;2022-12-07T17:28:42;2.60;1.00
4813;DHT22;2420;51.202;8.698;2022-12-07T17:31:10;2.60;1.00
4813;DHT22;2420;51.202;8.698;2022-12-07T17:33:36;2.50;1.00
4813;DHT22;2420;51.202;8.698;2022-12-07T17:36:13;2.50;1.00
4813;DHT22;2420;51.202;8.698;2022-12-07T17:38:39;2.30;1.00
4813;DHT22;2420;51.202;8.698;2022-12-07T17:41:16;2.40;1.00
4813;DHT22;2420;51.202;8.698;2022-12-07T17:44:03;2.50;1.00
4813;DHT22;2420;51.202;8.698;2022-12-07T17:46:30;2.60;1.00
4813;DHT22;2420;51.202;8.698;2022-12-07T17:48:56;2.40;1.00
4813;DHT22;2420;51.202;8.698;2022-12-07T17:51:22;2.60;1.00
4813;DHT22;2420;51.202;8.698;2022-12-07T17:54:06;2.50;1.00
4813;DHT22;2420;51.202;8.698;2022-12-07T17:56:31;2.40;1.00
4813;DHT22;2420;51.202;8.698;2022-12-07T17:58:57;2.60;1.00
4813;DHT22;2420;51.202;8.698;2022-12-07T18:01:22;2.70;1.00
4813;DHT22;2420;51.202;8.698;2022-12-07T18:03:48;2.50;1.00
4813;DHT22;2420;51.202;8.698;2022-12-07T18:06:13;2.60;1.00
4813;DHT22;2420;51.202;8.698;2022-12-07T18:08:39;2.60;1.00
4813;DHT22;2420;51.202;8.698;2022-12-07T18:11:05;2.60;1.00
4813;DHT22;2420;51.202;8.698;2022-12-07T18:13:32;2.50;1.00
4813;DHT22;2420;51.202;8.698;2022-12-07T18:16:27;2.40;1.00
4813;DHT22;2420;51.202;8.698;2022-12-07T18:18:52;2.60;1.00
4813;DHT22;2420;51.202;8.698;2022-12-07T18:21:22;2.60;1.00
4813;DHT22;2420;51.202;8.698;2022-12-07T18:23:50;2.40;1.00
4813;DHT22;2420;51.202;8.698;2022-12-07T18:26:17;2.60;1.00
4813;DHT22;2420;51.202;8.698;2022-12-07T18:28:44;2.50;1.00
4813;DHT22;2420;51.202;8.698;2022-12-07T18:31:10;2.40;1.00
4813;DHT22;2420;51.202;8.698;2022-12-07T18:33:37;2.60;1.00
4813;DHT22;2420;51.202;8.698;2022-12-07T18:36:03;2.60;1.00
4813;DHT22;2420;51.202;8.698;2022-12-07T18:38:29;2.40;1.00
4813;DHT22;2420;51.202;8.698;2022-12-07T18:40:55;2.40;1.00
4813;DHT22;2420;51.202;8.698;2022-12-07T18:43:22;2.50;1.00
4813;DHT22;2420;51.202;8.698;2022-12-07T18:45:49;2.30;1.00
4813;DHT22;2420;51.202;8.698;2022-12-07T18:48:16;2.30;1.00
4813;DHT22;2420;51.202;8.698;2022-12-07T18:50:42;2.50;1.00
4813;DHT22;2420;51.202;8.698;2022-12-07T18:53:09;2.30;1.00